Amiret, Minnesota
Current Conditions -  °F | °C
As of 1:53 AM on Friday 19 Dec 2014 (Local Time) from KTKC Reporting Station
Haze Haze  
Wind Chill: 28°   Ceiling: 700
Heat Index: 28°   Visibility: 4mi
Dew Point: 26°   Wind: 0mph
Humidity: 94%   Direction: NA
Pressure: 30.19"   Gusts: NA
Location:  44.2253°N, 95.6512°W
Report Text: KTKC 190753Z AUTO 00000KT 4SM BR OVC007 M02/M03 A3019 RMK AO2 T10251033
Loading
Personal Weather Stations






























Interactive Weather Map New forecast layout! Learn more

10-Day Weather Forecast

Advertisements
Track Severe Weather on mobile